sensor_id;sensor_type;location;lat;lon;timestamp;P1;durP1;ratioP1;P2;durP2;ratioP2
17451;SDS011;8843;48.838;9.324;2024-01-25T00:00:54;15.07;;;3.30;;
17451;SDS011;8843;48.838;9.324;2024-01-25T00:03:21;13.23;;;3.07;;
17451;SDS011;8843;48.838;9.324;2024-01-25T00:05:48;16.43;;;3.87;;
17451;SDS011;8843;48.838;9.324;2024-01-25T00:08:15;16.23;;;4.27;;
17451;SDS011;8843;48.838;9.324;2024-01-25T00:10:44;15.00;;;3.07;;
17451;SDS011;8843;48.838;9.324;2024-01-25T00:13:11;20.03;;;3.80;;
17451;SDS011;8843;48.838;9.324;2024-01-25T00:15:38;17.03;;;3.47;;
17451;SDS011;8843;48.838;9.324;2024-01-25T00:18:05;14.43;;;3.47;;
17451;SDS011;8843;48.838;9.324;2024-01-25T00:20:33;20.37;;;4.13;;
17451;SDS011;8843;48.838;9.324;2024-01-25T00:23:00;14.60;;;3.50;;
17451;SDS011;8843;48.838;9.324;2024-01-25T00:25:27;19.40;;;3.13;;
17451;SDS011;8843;48.838;9.324;2024-01-25T00:27:56;15.77;;;3.73;;
17451;SDS011;8843;48.838;9.324;2024-01-25T00:30:23;17.43;;;3.67;;
17451;SDS011;8843;48.838;9.324;2024-01-25T00:32:50;21.83;;;4.10;;
17451;SDS011;8843;48.838;9.324;2024-01-25T00:35:18;15.67;;;3.20;;
17451;SDS011;8843;48.838;9.324;2024-01-25T00:37:45;13.67;;;3.50;;
17451;SDS011;8843;48.838;9.324;2024-01-25T00:40:15;14.53;;;3.10;;
17451;SDS011;8843;48.838;9.324;2024-01-25T00:42:44;13.87;;;3.57;;
17451;SDS011;8843;48.838;9.324;2024-01-25T00:45:15;16.00;;;3.03;;
17451;SDS011;8843;48.838;9.324;2024-01-25T00:47:43;21.97;;;4.00;;
17451;SDS011;8843;48.838;9.324;2024-01-25T00:50:11;12.57;;;3.10;;
17451;SDS011;8843;48.838;9.324;2024-01-25T00:52:39;11.77;;;3.10;;
17451;SDS011;8843;48.838;9.324;2024-01-25T00:55:08;12.77;;;3.23;;
17451;SDS011;8843;48.838;9.324;2024-01-25T00:57:36;18.40;;;3.53;;
17451;SDS011;8843;48.838;9.324;2024-01-25T01:00:04;15.53;;;3.73;;
17451;SDS011;8843;48.838;9.324;2024-01-25T01:02:35;21.07;;;3.57;;
17451;SDS011;8843;48.838;9.324;2024-01-25T01:05:05;14.60;;;3.10;;
17451;SDS011;8843;48.838;9.324;2024-01-25T01:07:33;19.70;;;3.73;;
17451;SDS011;8843;48.838;9.324;2024-01-25T01:10:00;14.67;;;3.57;;
17451;SDS011;8843;48.838;9.324;2024-01-25T01:12:28;19.97;;;5.27;;
17451;SDS011;8843;48.838;9.324;2024-01-25T01:14:57;14.37;;;4.70;;
17451;SDS011;8843;48.838;9.324;2024-01-25T01:17:24;13.57;;;3.57;;
17451;SDS011;8843;48.838;9.324;2024-01-25T01:19:54;19.50;;;3.70;;
17451;SDS011;8843;48.838;9.324;2024-01-25T01:22:21;13.97;;;4.03;;
17451;SDS011;8843;48.838;9.324;2024-01-25T01:24:48;21.37;;;3.30;;
17451;SDS011;8843;48.838;9.324;2024-01-25T01:27:15;18.80;;;3.80;;
17451;SDS011;8843;48.838;9.324;2024-01-25T01:29:43;10.97;;;3.20;;
17451;SDS011;8843;48.838;9.324;2024-01-25T01:32:10;20.83;;;4.63;;
17451;SDS011;8843;48.838;9.324;2024-01-25T01:34:37;20.33;;;5.33;;
17451;SDS011;8843;48.838;9.324;2024-01-25T01:37:05;11.63;;;3.63;;
17451;SDS011;8843;48.838;9.324;2024-01-25T01:39:32;19.70;;;3.23;;
17451;SDS011;8843;48.838;9.324;2024-01-25T01:42:00;11.87;;;3.77;;
17451;SDS011;8843;48.838;9.324;2024-01-25T01:44:30;17.07;;;3.53;;
17451;SDS011;8843;48.838;9.324;2024-01-25T01:46:57;17.03;;;3.27;;
17451;SDS011;8843;48.838;9.324;2024-01-25T01:49:25;25.90;;;3.63;;
17451;SDS011;8843;48.838;9.324;2024-01-25T01:51:52;15.17;;;3.93;;
17451;SDS011;8843;48.838;9.324;2024-01-25T01:54:21;18.70;;;3.53;;
17451;SDS011;8843;48.838;9.324;2024-01-25T01:56:48;20.20;;;3.87;;
17451;SDS011;8843;48.838;9.324;2024-01-25T01:59:15;16.00;;;3.33;;
17451;SDS011;8843;48.838;9.324;2024-01-25T02:01:42;12.13;;;3.70;;
17451;SDS011;8843;48.838;9.324;2024-01-25T02:04:11;14.87;;;3.23;;
17451;SDS011;8843;48.838;9.324;2024-01-25T02:06:38;21.03;;;4.10;;
17451;SDS011;8843;48.838;9.324;2024-01-25T02:09:06;20.17;;;4.00;;
17451;SDS011;8843;48.838;9.324;2024-01-25T02:11:34;14.83;;;3.40;;
17451;SDS011;8843;48.838;9.324;2024-01-25T02:14:02;13.50;;;3.03;;
17451;SDS011;8843;48.838;9.324;2024-01-25T02:16:35;16.23;;;3.17;;
17451;SDS011;8843;48.838;9.324;2024-01-25T02:19:02;13.67;;;3.53;;
17451;SDS011;8843;48.838;9.324;2024-01-25T02:21:30;13.17;;;3.50;;
17451;SDS011;8843;48.838;9.324;2024-01-25T02:23:58;17.23;;;3.53;;
17451;SDS011;8843;48.838;9.324;2024-01-25T02:26:25;15.50;;;3.27;;
17451;SDS011;8843;48.838;9.324;2024-01-25T02:28:52;17.40;;;4.10;;
17451;SDS011;8843;48.838;9.324;2024-01-25T02:31:19;17.10;;;3.30;;
17451;SDS011;8843;48.838;9.324;2024-01-25T02:33:46;17.83;;;3.67;;
17451;SDS011;8843;48.838;9.324;2024-01-25T02:36:13;15.73;;;3.73;;
17451;SDS011;8843;48.838;9.324;2024-01-25T02:38:40;14.90;;;3.50;;
17451;SDS011;8843;48.838;9.324;2024-01-25T02:41:09;15.90;;;3.73;;
17451;SDS011;8843;48.838;9.324;2024-01-25T02:43:36;15.70;;;3.53;;
17451;SDS011;8843;48.838;9.324;2024-01-25T02:46:04;17.10;;;3.40;;
17451;SDS011;8843;48.838;9.324;2024-01-25T02:48:31;16.97;;;3.43;;
17451;SDS011;8843;48.838;9.324;2024-01-25T02:50:58;11.67;;;2.90;;
17451;SDS011;8843;48.838;9.324;2024-01-25T02:53:25;15.53;;;3.33;;
17451;SDS011;8843;48.838;9.324;2024-01-25T02:55:53;14.40;;;3.30;;
17451;SDS011;8843;48.838;9.324;2024-01-25T02:58:23;14.97;;;3.63;;
17451;SDS011;8843;48.838;9.324;2024-01-25T03:00:50;16.83;;;3.60;;
17451;SDS011;8843;48.838;9.324;2024-01-25T03:03:19;14.97;;;3.30;;
17451;SDS011;8843;48.838;9.324;2024-01-25T03:05:48;16.50;;;3.13;;
17451;SDS011;8843;48.838;9.324;2024-01-25T03:08:15;16.77;;;3.07;;
17451;SDS011;8843;48.838;9.324;2024-01-25T03:10:42;16.13;;;3.77;;
17451;SDS011;8843;48.838;9.324;2024-01-25T03:13:10;12.93;;;2.97;;
17451;SDS011;8843;48.838;9.324;2024-01-25T03:15:38;14.37;;;3.70;;
17451;SDS011;8843;48.838;9.324;2024-01-25T03:18:05;16.90;;;3.50;;
17451;SDS011;8843;48.838;9.324;2024-01-25T03:20:32;14.03;;;3.03;;
17451;SDS011;8843;48.838;9.324;2024-01-25T03:23:00;12.03;;;3.20;;
17451;SDS011;8843;48.838;9.324;2024-01-25T03:25:27;20.27;;;3.43;;
17451;SDS011;8843;48.838;9.324;2024-01-25T03:27:57;12.20;;;3.20;;
17451;SDS011;8843;48.838;9.324;2024-01-25T03:30:26;16.37;;;3.50;;
17451;SDS011;8843;48.838;9.324;2024-01-25T03:32:54;15.70;;;3.30;;
17451;SDS011;8843;48.838;9.324;2024-01-25T03:35:21;13.73;;;3.20;;
17451;SDS011;8843;48.838;9.324;2024-01-25T03:37:49;19.77;;;3.43;;
17451;SDS011;8843;48.838;9.324;2024-01-25T03:40:17;13.27;;;2.77;;
17451;SDS011;8843;48.838;9.324;2024-01-25T03:42:44;20.17;;;3.17;;
17451;SDS011;8843;48.838;9.324;2024-01-25T03:45:11;14.67;;;3.10;;
17451;SDS011;8843;48.838;9.324;2024-01-25T03:47:39;11.70;;;2.73;;
17451;SDS011;8843;48.838;9.324;2024-01-25T03:50:09;16.17;;;3.10;;
17451;SDS011;8843;48.838;9.324;2024-01-25T03:52:36;13.63;;;3.57;;
17451;SDS011;8843;48.838;9.324;2024-01-25T03:55:07;14.90;;;3.73;;
17451;SDS011;8843;48.838;9.324;2024-01-25T03:57:35;14.93;;;3.10;;
17451;SDS011;8843;48.838;9.324;2024-01-25T04:00:05;14.23;;;2.90;;
17451;SDS011;8843;48.838;9.324;2024-01-25T04:02:33;13.33;;;3.60;;
17451;SDS011;8843;48.838;9.324;2024-01-25T04:05:00;14.63;;;3.67;;
17451;SDS011;8843;48.838;9.324;2024-01-25T04:07:29;15.70;;;3.43;;
17451;SDS011;8843;48.838;9.324;2024-01-25T04:09:56;20.97;;;3.50;;
17451;SDS011;8843;48.838;9.324;2024-01-25T04:12:23;17.07;;;2.90;;
17451;SDS011;8843;48.838;9.324;2024-01-25T04:14:50;18.17;;;3.83;;
17451;SDS011;8843;48.838;9.324;2024-01-25T04:17:17;18.60;;;3.40;;
17451;SDS011;8843;48.838;9.324;2024-01-25T04:19:45;18.60;;;3.77;;
17451;SDS011;8843;48.838;9.324;2024-01-25T04:22:13;16.93;;;3.53;;
17451;SDS011;8843;48.838;9.324;2024-01-25T04:24:42;17.30;;;3.87;;
17451;SDS011;8843;48.838;9.324;2024-01-25T04:27:09;13.53;;;3.20;;
17451;SDS011;8843;48.838;9.324;2024-01-25T04:29:37;14.30;;;3.27;;
17451;SDS011;8843;48.838;9.324;2024-01-25T04:32:05;22.90;;;4.20;;
17451;SDS011;8843;48.838;9.324;2024-01-25T04:34:33;14.10;;;3.97;;
17451;SDS011;8843;48.838;9.324;2024-01-25T04:37:01;14.73;;;3.20;;
17451;SDS011;8843;48.838;9.324;2024-01-25T04:39:28;17.83;;;4.30;;
17451;SDS011;8843;48.838;9.324;2024-01-25T04:41:57;14.40;;;3.00;;
17451;SDS011;8843;48.838;9.324;2024-01-25T04:44:24;15.10;;;3.00;;
17451;SDS011;8843;48.838;9.324;2024-01-25T04:46:51;12.17;;;3.60;;
17451;SDS011;8843;48.838;9.324;2024-01-25T04:49:19;17.30;;;3.97;;
17451;SDS011;8843;48.838;9.324;2024-01-25T04:51:47;17.40;;;4.37;;
17451;SDS011;8843;48.838;9.324;2024-01-25T04:54:14;14.23;;;3.73;;
17451;SDS011;8843;48.838;9.324;2024-01-25T04:56:42;8.13;;;2.90;;
17451;SDS011;8843;48.838;9.324;2024-01-25T04:59:12;17.03;;;3.90;;
17451;SDS011;8843;48.838;9.324;2024-01-25T05:01:39;17.73;;;3.80;;
17451;SDS011;8843;48.838;9.324;2024-01-25T05:04:06;20.33;;;4.07;;
17451;SDS011;8843;48.838;9.324;2024-01-25T05:06:33;16.20;;;3.27;;
17451;SDS011;8843;48.838;9.324;2024-01-25T05:09:00;19.70;;;4.23;;
17451;SDS011;8843;48.838;9.324;2024-01-25T05:11:27;17.17;;;3.80;;
17451;SDS011;8843;48.838;9.324;2024-01-25T05:13:54;15.70;;;3.20;;
17451;SDS011;8843;48.838;9.324;2024-01-25T05:16:23;21.63;;;4.13;;
17451;SDS011;8843;48.838;9.324;2024-01-25T05:18:50;16.77;;;3.07;;
17451;SDS011;8843;48.838;9.324;2024-01-25T05:21:17;14.47;;;3.53;;
17451;SDS011;8843;48.838;9.324;2024-01-25T05:23:44;12.73;;;3.40;;
17451;SDS011;8843;48.838;9.324;2024-01-25T05:26:11;16.17;;;3.20;;
17451;SDS011;8843;48.838;9.324;2024-01-25T05:28:38;15.50;;;3.47;;
17451;SDS011;8843;48.838;9.324;2024-01-25T05:31:06;13.47;;;3.10;;
17451;SDS011;8843;48.838;9.324;2024-01-25T05:33:39;17.13;;;3.40;;
17451;SDS011;8843;48.838;9.324;2024-01-25T05:36:06;13.60;;;2.90;;
17451;SDS011;8843;48.838;9.324;2024-01-25T05:38:34;13.90;;;2.97;;
17451;SDS011;8843;48.838;9.324;2024-01-25T05:41:01;14.40;;;3.63;;
17451;SDS011;8843;48.838;9.324;2024-01-25T05:43:28;11.43;;;3.43;;
17451;SDS011;8843;48.838;9.324;2024-01-25T05:45:54;12.53;;;3.17;;
17451;SDS011;8843;48.838;9.324;2024-01-25T05:48:22;15.00;;;3.30;;
17451;SDS011;8843;48.838;9.324;2024-01-25T05:50:52;9.20;;;3.00;;
17451;SDS011;8843;48.838;9.324;2024-01-25T05:53:20;14.07;;;2.83;;
17451;SDS011;8843;48.838;9.324;2024-01-25T05:55:47;12.77;;;2.97;;
17451;SDS011;8843;48.838;9.324;2024-01-25T05:58:14;15.53;;;4.23;;
17451;SDS011;8843;48.838;9.324;2024-01-25T06:00:42;10.10;;;2.80;;
17451;SDS011;8843;48.838;9.324;2024-01-25T06:03:09;15.33;;;3.77;;
17451;SDS011;8843;48.838;9.324;2024-01-25T06:05:36;8.43;;;2.87;;
17451;SDS011;8843;48.838;9.324;2024-01-25T06:08:05;11.27;;;3.00;;
17451;SDS011;8843;48.838;9.324;2024-01-25T06:10:32;16.27;;;3.20;;
17451;SDS011;8843;48.838;9.324;2024-01-25T06:13:01;14.60;;;2.83;;
17451;SDS011;8843;48.838;9.324;2024-01-25T06:15:30;12.93;;;3.53;;
17451;SDS011;8843;48.838;9.324;2024-01-25T06:17:57;18.50;;;3.27;;
17451;SDS011;8843;48.838;9.324;2024-01-25T06:20:26;8.63;;;3.00;;
17451;SDS011;8843;48.838;9.324;2024-01-25T06:22:55;15.23;;;3.50;;
17451;SDS011;8843;48.838;9.324;2024-01-25T06:25:25;17.07;;;3.60;;
17451;SDS011;8843;48.838;9.324;2024-01-25T06:27:55;15.53;;;3.83;;
17451;SDS011;8843;48.838;9.324;2024-01-25T06:30:24;10.00;;;3.20;;
17451;SDS011;8843;48.838;9.324;2024-01-25T06:32:51;11.03;;;3.03;;
17451;SDS011;8843;48.838;9.324;2024-01-25T06:35:18;15.70;;;2.80;;
17451;SDS011;8843;48.838;9.324;2024-01-25T06:37:45;16.70;;;3.50;;
17451;SDS011;8843;48.838;9.324;2024-01-25T06:40:12;12.47;;;3.20;;
17451;SDS011;8843;48.838;9.324;2024-01-25T06:42:41;11.40;;;4.33;;
17451;SDS011;8843;48.838;9.324;2024-01-25T06:45:10;18.17;;;3.90;;
17451;SDS011;8843;48.838;9.324;2024-01-25T06:47:38;8.10;;;3.10;;
17451;SDS011;8843;48.838;9.324;2024-01-25T06:50:06;17.40;;;3.60;;
17451;SDS011;8843;48.838;9.324;2024-01-25T06:52:34;10.47;;;3.17;;
17451;SDS011;8843;48.838;9.324;2024-01-25T06:55:02;12.70;;;3.37;;
17451;SDS011;8843;48.838;9.324;2024-01-25T06:57:32;15.90;;;3.10;;
17451;SDS011;8843;48.838;9.324;2024-01-25T07:00:04;15.47;;;3.43;;
17451;SDS011;8843;48.838;9.324;2024-01-25T07:02:33;12.00;;;2.83;;
17451;SDS011;8843;48.838;9.324;2024-01-25T07:05:00;14.73;;;3.70;;
17451;SDS011;8843;48.838;9.324;2024-01-25T07:07:29;12.90;;;3.30;;
17451;SDS011;8843;48.838;9.324;2024-01-25T07:10:00;15.67;;;3.27;;
17451;SDS011;8843;48.838;9.324;2024-01-25T07:12:27;14.90;;;3.43;;
17451;SDS011;8843;48.838;9.324;2024-01-25T07:14:54;11.27;;;3.03;;
17451;SDS011;8843;48.838;9.324;2024-01-25T07:17:24;10.50;;;2.87;;
17451;SDS011;8843;48.838;9.324;2024-01-25T07:19:53;13.40;;;2.80;;
17451;SDS011;8843;48.838;9.324;2024-01-25T07:22:20;15.13;;;3.20;;
17451;SDS011;8843;48.838;9.324;2024-01-25T07:24:51;13.63;;;3.10;;
17451;SDS011;8843;48.838;9.324;2024-01-25T07:27:17;14.90;;;3.23;;
17451;SDS011;8843;48.838;9.324;2024-01-25T07:29:44;17.03;;;3.67;;
17451;SDS011;8843;48.838;9.324;2024-01-25T07:32:11;11.87;;;3.33;;
17451;SDS011;8843;48.838;9.324;2024-01-25T07:34:41;11.13;;;3.03;;
17451;SDS011;8843;48.838;9.324;2024-01-25T07:37:08;15.00;;;3.70;;
17451;SDS011;8843;48.838;9.324;2024-01-25T07:39:38;16.43;;;4.97;;
17451;SDS011;8843;48.838;9.324;2024-01-25T07:42:07;14.93;;;3.43;;
17451;SDS011;8843;48.838;9.324;2024-01-25T07:44:34;10.63;;;3.20;;
17451;SDS011;8843;48.838;9.324;2024-01-25T07:47:03;15.83;;;3.50;;
17451;SDS011;8843;48.838;9.324;2024-01-25T07:49:31;17.53;;;3.23;;
17451;SDS011;8843;48.838;9.324;2024-01-25T07:52:01;15.70;;;3.93;;
17451;SDS011;8843;48.838;9.324;2024-01-25T07:54:29;14.00;;;2.97;;
17451;SDS011;8843;48.838;9.324;2024-01-25T07:56:56;14.40;;;3.10;;
17451;SDS011;8843;48.838;9.324;2024-01-25T07:59:23;13.07;;;3.17;;
17451;SDS011;8843;48.838;9.324;2024-01-25T08:01:50;15.07;;;3.43;;
17451;SDS011;8843;48.838;9.324;2024-01-25T08:04:17;20.13;;;3.93;;
17451;SDS011;8843;48.838;9.324;2024-01-25T08:06:44;15.40;;;4.17;;
17451;SDS011;8843;48.838;9.324;2024-01-25T08:09:13;13.83;;;4.37;;
17451;SDS011;8843;48.838;9.324;2024-01-25T08:11:41;13.57;;;3.67;;
17451;SDS011;8843;48.838;9.324;2024-01-25T08:14:08;13.13;;;3.37;;
17451;SDS011;8843;48.838;9.324;2024-01-25T08:16:36;11.13;;;4.23;;
17451;SDS011;8843;48.838;9.324;2024-01-25T08:19:04;12.07;;;3.17;;
17451;SDS011;8843;48.838;9.324;2024-01-25T08:21:31;12.37;;;3.40;;
17451;SDS011;8843;48.838;9.324;2024-01-25T08:24:00;15.53;;;4.33;;
17451;SDS011;8843;48.838;9.324;2024-01-25T08:26:29;14.47;;;3.43;;
17451;SDS011;8843;48.838;9.324;2024-01-25T08:28:57;14.63;;;3.60;;
17451;SDS011;8843;48.838;9.324;2024-01-25T08:31:24;10.90;;;3.40;;
17451;SDS011;8843;48.838;9.324;2024-01-25T08:33:54;10.57;;;3.20;;
17451;SDS011;8843;48.838;9.324;2024-01-25T08:36:21;14.87;;;4.20;;
17451;SDS011;8843;48.838;9.324;2024-01-25T08:38:49;13.00;;;4.03;;
17451;SDS011;8843;48.838;9.324;2024-01-25T08:41:18;12.63;;;3.50;;
17451;SDS011;8843;48.838;9.324;2024-01-25T08:43:47;17.63;;;3.43;;
17451;SDS011;8843;48.838;9.324;2024-01-25T08:46:15;7.43;;;4.03;;
17451;SDS011;8843;48.838;9.324;2024-01-25T08:48:42;15.03;;;3.93;;
17451;SDS011;8843;48.838;9.324;2024-01-25T08:51:09;15.37;;;4.40;;
17451;SDS011;8843;48.838;9.324;2024-01-25T08:53:37;17.27;;;4.73;;
17451;SDS011;8843;48.838;9.324;2024-01-25T08:56:06;13.87;;;4.73;;
17451;SDS011;8843;48.838;9.324;2024-01-25T08:58:33;22.17;;;4.80;;
17451;SDS011;8843;48.838;9.324;2024-01-25T09:01:02;24.37;;;5.77;;
17451;SDS011;8843;48.838;9.324;2024-01-25T09:03:31;22.23;;;4.47;;
17451;SDS011;8843;48.838;9.324;2024-01-25T09:05:58;14.70;;;4.53;;
17451;SDS011;8843;48.838;9.324;2024-01-25T09:08:30;21.80;;;5.03;;
17451;SDS011;8843;48.838;9.324;2024-01-25T09:10:57;21.13;;;5.93;;
17451;SDS011;8843;48.838;9.324;2024-01-25T09:13:24;19.67;;;5.60;;
17451;SDS011;8843;48.838;9.324;2024-01-25T09:15:51;16.47;;;4.50;;
17451;SDS011;8843;48.838;9.324;2024-01-25T09:18:20;20.50;;;4.53;;
17451;SDS011;8843;48.838;9.324;2024-01-25T09:20:47;23.03;;;5.03;;
17451;SDS011;8843;48.838;9.324;2024-01-25T09:23:14;21.83;;;5.87;;
17451;SDS011;8843;48.838;9.324;2024-01-25T09:25:43;23.07;;;4.50;;
17451;SDS011;8843;48.838;9.324;2024-01-25T09:28:12;19.40;;;4.13;;
17451;SDS011;8843;48.838;9.324;2024-01-25T09:30:39;20.10;;;4.27;;
17451;SDS011;8843;48.838;9.324;2024-01-25T09:33:08;23.20;;;4.87;;
17451;SDS011;8843;48.838;9.324;2024-01-25T09:35:37;22.13;;;4.70;;
17451;SDS011;8843;48.838;9.324;2024-01-25T09:38:04;18.73;;;4.13;;
17451;SDS011;8843;48.838;9.324;2024-01-25T09:40:31;20.43;;;3.67;;
17451;SDS011;8843;48.838;9.324;2024-01-25T09:43:01;18.67;;;4.93;;
17451;SDS011;8843;48.838;9.324;2024-01-25T09:45:31;23.07;;;4.57;;
17451;SDS011;8843;48.838;9.324;2024-01-25T09:47:58;17.73;;;4.13;;
17451;SDS011;8843;48.838;9.324;2024-01-25T09:50:32;13.73;;;3.40;;
17451;SDS011;8843;48.838;9.324;2024-01-25T09:53:02;18.70;;;4.10;;
17451;SDS011;8843;48.838;9.324;2024-01-25T09:55:32;19.10;;;3.70;;
17451;SDS011;8843;48.838;9.324;2024-01-25T09:58:03;19.20;;;4.00;;
17451;SDS011;8843;48.838;9.324;2024-01-25T10:00:33;14.10;;;4.00;;
17451;SDS011;8843;48.838;9.324;2024-01-25T10:03:02;12.93;;;3.43;;
17451;SDS011;8843;48.838;9.324;2024-01-25T10:05:29;16.67;;;3.80;;
17451;SDS011;8843;48.838;9.324;2024-01-25T10:07:56;16.50;;;4.17;;
17451;SDS011;8843;48.838;9.324;2024-01-25T10:10:31;18.63;;;3.73;;
17451;SDS011;8843;48.838;9.324;2024-01-25T10:13:02;19.40;;;3.90;;
17451;SDS011;8843;48.838;9.324;2024-01-25T10:15:31;14.90;;;4.17;;
17451;SDS011;8843;48.838;9.324;2024-01-25T10:18:00;22.37;;;4.13;;
17451;SDS011;8843;48.838;9.324;2024-01-25T10:20:30;18.83;;;3.57;;
17451;SDS011;8843;48.838;9.324;2024-01-25T10:23:00;21.43;;;3.70;;
17451;SDS011;8843;48.838;9.324;2024-01-25T10:25:28;15.00;;;3.70;;
17451;SDS011;8843;48.838;9.324;2024-01-25T10:27:55;12.47;;;3.80;;
17451;SDS011;8843;48.838;9.324;2024-01-25T10:30:23;15.10;;;4.03;;
17451;SDS011;8843;48.838;9.324;2024-01-25T10:32:50;16.60;;;3.23;;
17451;SDS011;8843;48.838;9.324;2024-01-25T10:35:21;21.43;;;3.77;;
17451;SDS011;8843;48.838;9.324;2024-01-25T10:37:49;16.43;;;3.37;;
17451;SDS011;8843;48.838;9.324;2024-01-25T10:40:17;16.90;;;3.50;;
17451;SDS011;8843;48.838;9.324;2024-01-25T10:42:47;18.80;;;3.80;;
17451;SDS011;8843;48.838;9.324;2024-01-25T10:45:14;22.27;;;3.70;;
17451;SDS011;8843;48.838;9.324;2024-01-25T10:47:42;15.63;;;3.70;;
17451;SDS011;8843;48.838;9.324;2024-01-25T10:50:11;17.83;;;3.93;;
17451;SDS011;8843;48.838;9.324;2024-01-25T10:52:39;16.07;;;4.13;;
17451;SDS011;8843;48.838;9.324;2024-01-25T10:55:07;17.93;;;3.57;;
17451;SDS011;8843;48.838;9.324;2024-01-25T10:57:38;23.90;;;4.53;;
17451;SDS011;8843;48.838;9.324;2024-01-25T11:00:13;9.67;;;3.07;;
17451;SDS011;8843;48.838;9.324;2024-01-25T11:02:42;22.50;;;4.70;;
17451;SDS011;8843;48.838;9.324;2024-01-25T11:05:15;21.17;;;4.47;;
17451;SDS011;8843;48.838;9.324;2024-01-25T11:07:44;14.97;;;3.00;;
17451;SDS011;8843;48.838;9.324;2024-01-25T11:10:13;19.67;;;3.97;;
17451;SDS011;8843;48.838;9.324;2024-01-25T11:12:49;17.37;;;3.60;;
17451;SDS011;8843;48.838;9.324;2024-01-25T11:15:20;17.40;;;3.17;;
17451;SDS011;8843;48.838;9.324;2024-01-25T11:17:51;13.80;;;3.53;;
17451;SDS011;8843;48.838;9.324;2024-01-25T11:20:20;12.53;;;3.80;;
17451;SDS011;8843;48.838;9.324;2024-01-25T11:22:48;15.23;;;3.70;;
17451;SDS011;8843;48.838;9.324;2024-01-25T11:25:22;13.33;;;3.27;;
17451;SDS011;8843;48.838;9.324;2024-01-25T11:27:49;18.13;;;4.30;;
17451;SDS011;8843;48.838;9.324;2024-01-25T11:30:17;16.97;;;3.83;;
17451;SDS011;8843;48.838;9.324;2024-01-25T11:32:46;17.90;;;3.37;;
17451;SDS011;8843;48.838;9.324;2024-01-25T11:35:14;14.07;;;3.20;;
17451;SDS011;8843;48.838;9.324;2024-01-25T11:37:42;20.07;;;3.87;;
17451;SDS011;8843;48.838;9.324;2024-01-25T11:40:10;16.33;;;3.97;;
17451;SDS011;8843;48.838;9.324;2024-01-25T11:42:37;18.97;;;4.43;;
17451;SDS011;8843;48.838;9.324;2024-01-25T11:45:05;17.53;;;4.50;;
17451;SDS011;8843;48.838;9.324;2024-01-25T11:47:35;15.07;;;3.77;;
17451;SDS011;8843;48.838;9.324;2024-01-25T11:50:03;13.40;;;3.50;;
17451;SDS011;8843;48.838;9.324;2024-01-25T11:52:34;11.00;;;2.80;;
17451;SDS011;8843;48.838;9.324;2024-01-25T11:55:04;17.57;;;3.40;;
17451;SDS011;8843;48.838;9.324;2024-01-25T11:57:33;14.10;;;3.73;;
17451;SDS011;8843;48.838;9.324;2024-01-25T12:00:02;13.47;;;3.80;;
17451;SDS011;8843;48.838;9.324;2024-01-25T12:02:30;12.13;;;2.93;;
17451;SDS011;8843;48.838;9.324;2024-01-25T12:04:59;8.63;;;2.87;;
17451;SDS011;8843;48.838;9.324;2024-01-25T12:07:33;12.27;;;2.73;;
17451;SDS011;8843;48.838;9.324;2024-01-25T12:10:02;10.63;;;3.13;;
17451;SDS011;8843;48.838;9.324;2024-01-25T12:12:35;8.83;;;2.60;;
17451;SDS011;8843;48.838;9.324;2024-01-25T12:15:05;12.23;;;3.70;;
17451;SDS011;8843;48.838;9.324;2024-01-25T12:17:33;9.87;;;3.40;;
17451;SDS011;8843;48.838;9.324;2024-01-25T12:20:03;12.00;;;2.90;;
17451;SDS011;8843;48.838;9.324;2024-01-25T12:22:35;19.33;;;3.27;;
17451;SDS011;8843;48.838;9.324;2024-01-25T12:25:05;12.03;;;2.60;;
17451;SDS011;8843;48.838;9.324;2024-01-25T12:27:33;9.20;;;2.77;;
17451;SDS011;8843;48.838;9.324;2024-01-25T12:30:02;10.63;;;2.47;;
17451;SDS011;8843;48.838;9.324;2024-01-25T12:32:30;11.53;;;2.83;;
17451;SDS011;8843;48.838;9.324;2024-01-25T12:34:58;10.03;;;2.73;;
17451;SDS011;8843;48.838;9.324;2024-01-25T12:37:27;8.17;;;2.63;;
17451;SDS011;8843;48.838;9.324;2024-01-25T12:39:55;9.17;;;2.37;;
17451;SDS011;8843;48.838;9.324;2024-01-25T12:42:23;10.73;;;3.43;;
17451;SDS011;8843;48.838;9.324;2024-01-25T12:44:51;8.40;;;3.17;;
17451;SDS011;8843;48.838;9.324;2024-01-25T12:47:19;7.20;;;2.50;;
17451;SDS011;8843;48.838;9.324;2024-01-25T12:49:47;11.93;;;2.43;;
17451;SDS011;8843;48.838;9.324;2024-01-25T12:52:16;7.87;;;2.67;;
17451;SDS011;8843;48.838;9.324;2024-01-25T12:54:47;7.80;;;2.70;;
17451;SDS011;8843;48.838;9.324;2024-01-25T12:57:14;10.67;;;2.23;;
17451;SDS011;8843;48.838;9.324;2024-01-25T12:59:43;11.30;;;2.60;;
17451;SDS011;8843;48.838;9.324;2024-01-25T13:02:12;7.33;;;2.60;;
17451;SDS011;8843;48.838;9.324;2024-01-25T13:04:40;12.50;;;2.53;;
17451;SDS011;8843;48.838;9.324;2024-01-25T13:07:08;10.53;;;2.30;;
17451;SDS011;8843;48.838;9.324;2024-01-25T13:09:35;9.67;;;2.80;;
17451;SDS011;8843;48.838;9.324;2024-01-25T13:12:04;8.73;;;2.10;;
17451;SDS011;8843;48.838;9.324;2024-01-25T13:14:31;9.43;;;2.20;;
17451;SDS011;8843;48.838;9.324;2024-01-25T13:16:58;8.97;;;2.47;;
17451;SDS011;8843;48.838;9.324;2024-01-25T13:19:26;8.73;;;3.13;;
17451;SDS011;8843;48.838;9.324;2024-01-25T13:21:53;5.43;;;2.03;;
17451;SDS011;8843;48.838;9.324;2024-01-25T13:24:20;7.80;;;2.10;;
17451;SDS011;8843;48.838;9.324;2024-01-25T13:26:48;7.80;;;2.17;;
17451;SDS011;8843;48.838;9.324;2024-01-25T13:29:17;6.50;;;2.70;;
17451;SDS011;8843;48.838;9.324;2024-01-25T13:31:44;6.47;;;2.07;;
17451;SDS011;8843;48.838;9.324;2024-01-25T13:34:11;8.43;;;2.70;;
17451;SDS011;8843;48.838;9.324;2024-01-25T13:36:38;8.13;;;2.23;;
17451;SDS011;8843;48.838;9.324;2024-01-25T13:39:05;7.70;;;2.17;;
17451;SDS011;8843;48.838;9.324;2024-01-25T13:41:34;6.53;;;2.37;;
17451;SDS011;8843;48.838;9.324;2024-01-25T13:44:01;6.47;;;1.97;;
17451;SDS011;8843;48.838;9.324;2024-01-25T13:46:31;6.23;;;2.23;;
17451;SDS011;8843;48.838;9.324;2024-01-25T13:48:59;13.07;;;2.60;;
17451;SDS011;8843;48.838;9.324;2024-01-25T13:51:26;12.17;;;2.63;;
17451;SDS011;8843;48.838;9.324;2024-01-25T13:53:53;9.10;;;2.37;;
17451;SDS011;8843;48.838;9.324;2024-01-25T13:56:22;8.33;;;2.37;;
17451;SDS011;8843;48.838;9.324;2024-01-25T13:58:50;5.83;;;1.93;;
17451;SDS011;8843;48.838;9.324;2024-01-25T14:01:17;8.43;;;2.77;;
17451;SDS011;8843;48.838;9.324;2024-01-25T14:03:46;6.83;;;2.83;;
17451;SDS011;8843;48.838;9.324;2024-01-25T14:06:13;7.87;;;3.07;;
17451;SDS011;8843;48.838;9.324;2024-01-25T14:08:40;9.30;;;2.20;;
17451;SDS011;8843;48.838;9.324;2024-01-25T14:11:10;9.27;;;2.40;;
17451;SDS011;8843;48.838;9.324;2024-01-25T14:13:37;8.07;;;2.97;;
17451;SDS011;8843;48.838;9.324;2024-01-25T14:16:04;7.30;;;2.40;;
17451;SDS011;8843;48.838;9.324;2024-01-25T14:18:35;7.73;;;2.40;;
17451;SDS011;8843;48.838;9.324;2024-01-25T14:21:05;4.93;;;2.10;;
17451;SDS011;8843;48.838;9.324;2024-01-25T14:23:32;7.13;;;2.47;;
17451;SDS011;8843;48.838;9.324;2024-01-25T14:25:59;7.33;;;2.33;;
17451;SDS011;8843;48.838;9.324;2024-01-25T14:28:28;8.30;;;2.37;;
17451;SDS011;8843;48.838;9.324;2024-01-25T14:30:55;12.00;;;2.60;;
17451;SDS011;8843;48.838;9.324;2024-01-25T14:33:22;11.53;;;2.57;;
17451;SDS011;8843;48.838;9.324;2024-01-25T14:35:49;12.03;;;2.87;;
17451;SDS011;8843;48.838;9.324;2024-01-25T14:38:18;7.30;;;2.20;;
17451;SDS011;8843;48.838;9.324;2024-01-25T14:40:45;12.57;;;3.10;;
17451;SDS011;8843;48.838;9.324;2024-01-25T14:43:12;10.70;;;2.77;;
17451;SDS011;8843;48.838;9.324;2024-01-25T14:45:40;12.77;;;2.90;;
17451;SDS011;8843;48.838;9.324;2024-01-25T14:48:08;5.20;;;2.20;;
17451;SDS011;8843;48.838;9.324;2024-01-25T14:50:36;9.50;;;2.70;;
17451;SDS011;8843;48.838;9.324;2024-01-25T14:53:03;8.73;;;2.47;;
17451;SDS011;8843;48.838;9.324;2024-01-25T14:55:32;10.47;;;2.60;;